Terminal Aerodrome Forecast
Issued by NWS

Home | Current Version | Previous Version | Text Only | Print | Product List | Glossary On
Versions: 1 2 3 4 5 6 7 8 9 10 11 12 13 14 15 16 17
000
FTUS42 KTBW 072333
TAFLAL
TAF
KLAL 072333Z 0800/0824 VRB03KT P6SM -RA SCT060 OVC130
     FM080200 VRB03KT P6SM SCT130 BKN250
     FM080400 VRB03KT P6SM SCT250
     FM081400 15005KT P6SM SCT025 SCT250
     FM081600 17005KT P6SM BKN035
     FM081800 18006KT P6SM VCTS BKN040CB=

USA.gov is the U.S. government's official web portal to all federal, state and local government web resources and services.